Parsons, West Virginia
Current Conditions -  °F | °C
As of 11:51 AM on Wednesday 22 Oct 2014 (Local Time) from KEKN Reporting Station
Overcast Overcast  
Wind Chill: 40°   Ceiling: 1200
Heat Index: 45°   Visibility: 10mi
Dew Point: 44°   Wind: 9mph
Humidity: 97%   Direction: 310°NW
Pressure: 30.14"   Gusts: NA
Location:  39.1°N, 79.68°W
Report Text: KEKN 221551Z AUTO 31008KT 10SM OVC012 07/07 A3014 RMK AO2 SLP217 T00720067 TSNO
Loading
Personal Weather Stations






























Interactive Weather Map
Tropical Storm Tracking
New forecast layout! Learn more

10-Day Weather Forecast

Advertisements
Track Severe Weather on mobile